createdAt,value
2023-01-08T00:00:45.753Z,100833.02
2023-01-08T00:03:12.829Z,100829.74
2023-01-08T00:05:39.589Z,100831.29
2023-01-08T00:08:08.443Z,100831.86
2023-01-08T00:10:36.006Z,100833.41
2023-01-08T00:13:02.757Z,100839.39
2023-01-08T00:15:30.200Z,100840.05
2023-01-08T00:17:57.611Z,100837.36
2023-01-08T00:20:24.381Z,100835.23
2023-01-08T00:22:51.384Z,100835.60
2023-01-08T00:25:18.631Z,100836.10
2023-01-08T00:27:45.876Z,100839.88
2023-01-08T00:30:13.066Z,100838.88
2023-01-08T00:32:39.838Z,100840.23
2023-01-08T00:35:06.738Z,100841.99
2023-01-08T00:37:33.456Z,100841.25
2023-01-08T00:40:00.186Z,100834.08
2023-01-08T00:42:26.909Z,100842.73
2023-01-08T00:44:53.597Z,100837.44
2023-01-08T00:47:20.405Z,100832.15
2023-01-08T00:49:47.040Z,100833.40
2023-01-08T00:52:13.731Z,100834.67
2023-01-08T00:54:40.446Z,100830.91
2023-01-08T00:57:07.152Z,100832.45
2023-01-08T00:59:33.885Z,100832.44
2023-01-08T01:02:00.751Z,100828.36
2023-01-08T01:04:27.717Z,100826.29
2023-01-08T01:06:54.415Z,100826.67
2023-01-08T01:09:21.064Z,100825.57
2023-01-08T01:11:47.771Z,100820.23
2023-01-08T01:14:14.506Z,100815.54
2023-01-08T01:16:42.720Z,100818.63
2023-01-08T01:19:09.749Z,100818.86
2023-01-08T01:21:36.573Z,100817.26
2023-01-08T01:24:04.016Z,100815.23
2023-01-08T01:26:30.885Z,100813.35
2023-01-08T01:28:57.824Z,100817.02
2023-01-08T01:31:25.210Z,100818.66
2023-01-08T01:33:51.930Z,100821.42
2023-01-08T01:36:19.295Z,100820.90
2023-01-08T01:38:46.804Z,100825.06
2023-01-08T01:41:28.203Z,100828.92
2023-01-08T01:43:59.408Z,100830.30
2023-01-08T01:46:35.851Z,100826.02
2023-01-08T01:49:14.252Z,100825.58
2023-01-08T01:51:47.783Z,100824.80
2023-01-08T01:54:14.508Z,100822.97
2023-01-08T01:56:41.565Z,100818.10
2023-01-08T01:59:08.290Z,100816.69
2023-01-08T02:01:35.087Z,100816.78
2023-01-08T02:04:02.284Z,100818.61
2023-01-08T02:06:33.505Z,100812.85
2023-01-08T02:09:25.061Z,100814.79
2023-01-08T02:12:19.519Z,100823.71
2023-01-08T02:14:49.106Z,100823.90
2023-01-08T02:17:17.061Z,100814.20
2023-01-08T02:19:49.788Z,100815.40
2023-01-08T02:22:37.791Z,100814.30
2023-01-08T02:25:16.573Z,100815.45
2023-01-08T02:27:44.653Z,100817.43
2023-01-08T02:30:11.620Z,100819.21
2023-01-08T02:32:39.709Z,100817.44
2023-01-08T02:35:07.208Z,100820.56
2023-01-08T02:37:33.911Z,100824.16
2023-01-08T02:40:06.274Z,100820.60
2023-01-08T02:42:35.802Z,100819.16
2023-01-08T02:45:20.871Z,100823.39
2023-01-08T02:47:54.726Z,100821.14
2023-01-08T02:50:22.622Z,100817.41
2023-01-08T02:52:57.954Z,100818.48
2023-01-08T02:55:24.686Z,100821.79
2023-01-08T02:57:51.289Z,100814.27
2023-01-08T03:00:18.264Z,100815.15
2023-01-08T03:02:45.068Z,100817.16
2023-01-08T03:05:17.398Z,100817.20
2023-01-08T03:07:44.089Z,100822.39
2023-01-08T03:10:11.903Z,100824.12
2023-01-08T03:12:42.108Z,100825.63
2023-01-08T03:15:09.370Z,100820.03
2023-01-08T03:17:37.424Z,100824.32
2023-01-08T03:20:15.698Z,100823.26
2023-01-08T03:22:44.292Z,100825.43
2023-01-08T03:25:11.063Z,100824.67
2023-01-08T03:27:38.415Z,100812.76
2023-01-08T03:30:06.088Z,100805.63
2023-01-08T03:32:32.830Z,100807.71
2023-01-08T03:34:59.827Z,100812.02
2023-01-08T03:37:29.511Z,100818.45
2023-01-08T03:39:59.376Z,100818.95
2023-01-08T03:44:21.333Z,100815.59
2023-01-08T03:46:49.256Z,100822.37
2023-01-08T03:49:15.953Z,100823.88
2023-01-08T03:51:43.814Z,100823.59
2023-01-08T03:54:16.107Z,100824.38
2023-01-08T03:56:42.863Z,100824.63
2023-01-08T03:59:10.481Z,100822.32
2023-01-08T04:01:37.268Z,100823.19
2023-01-08T04:04:04.024Z,100814.58
2023-01-08T04:06:30.773Z,100820.48
2023-01-08T04:08:57.429Z,100820.45
2023-01-08T04:11:24.220Z,100821.20
2023-01-08T04:13:50.843Z,100821.67
2023-01-08T04:16:17.624Z,100822.48
2023-01-08T04:18:44.317Z,100826.98
2023-01-08T04:21:11.032Z,100827.19
2023-01-08T04:23:37.626Z,100827.95
2023-01-08T04:26:05.983Z,100826.15
2023-01-08T04:28:32.650Z,100823.83
2023-01-08T04:30:59.446Z,100819.83
2023-01-08T04:33:26.173Z,100822.10
2023-01-08T04:35:52.932Z,100827.02
2023-01-08T04:38:19.597Z,100820.14
2023-01-08T04:40:46.316Z,100831.19
2023-01-08T04:43:12.973Z,100832.96
2023-01-08T04:45:39.718Z,100831.92
2023-01-08T04:48:06.503Z,100828.33
2023-01-08T04:50:33.213Z,100826.90
2023-01-08T04:53:00.348Z,100823.47
2023-01-08T04:55:27.107Z,100825.14
2023-01-08T04:57:53.757Z,100825.67
2023-01-08T05:00:20.560Z,100823.04
2023-01-08T05:02:47.311Z,100826.23
2023-01-08T05:05:14.247Z,100830.95
2023-01-08T05:07:40.911Z,100834.11
2023-01-08T05:10:08.126Z,100837.77
2023-01-08T05:12:34.871Z,100840.77
2023-01-08T05:15:01.515Z,100846.25
2023-01-08T05:17:28.321Z,100843.14
2023-01-08T05:19:54.969Z,100847.65
2023-01-08T05:22:21.718Z,100847.58
2023-01-08T05:24:48.337Z,100845.77
2023-01-08T05:27:15.036Z,100846.04
2023-01-08T05:29:41.678Z,100843.67
2023-01-08T05:32:14.864Z,100847.38
2023-01-08T05:34:41.698Z,100847.30
2023-01-08T05:37:08.320Z,100846.39
2023-01-08T05:39:35.048Z,100846.83
2023-01-08T05:42:01.824Z,100843.52
2023-01-08T05:44:28.527Z,100846.42
2023-01-08T05:46:55.311Z,100846.80
2023-01-08T05:49:22.158Z,100852.80
2023-01-08T05:51:48.823Z,100852.95
2023-01-08T05:54:15.558Z,100850.22
2023-01-08T05:56:44.028Z,100852.66
2023-01-08T05:59:11.749Z,100860.77
2023-01-08T06:01:38.569Z,100866.10
2023-01-08T06:04:05.498Z,100869.14
2023-01-08T06:06:32.114Z,100865.92
2023-01-08T06:08:58.853Z,100863.05
2023-01-08T06:11:25.479Z,100866.95
2023-01-08T06:13:52.400Z,100864.45
2023-01-08T06:16:20.961Z,100866.57
2023-01-08T06:18:47.736Z,100862.23
2023-01-08T06:21:14.519Z,100865.95
2023-01-08T06:23:41.202Z,100865.02
2023-01-08T06:26:07.906Z,100862.55
2023-01-08T06:28:34.610Z,100862.17
2023-01-08T06:31:01.625Z,100862.27
2023-01-08T06:33:28.949Z,100858.83
2023-01-08T06:35:55.746Z,100855.29
2023-01-08T06:38:23.000Z,100855.35
2023-01-08T06:40:49.784Z,100858.33
2023-01-08T06:43:16.507Z,100859.88
2023-01-08T06:45:43.308Z,100865.70
2023-01-08T06:48:10.075Z,100867.73
2023-01-08T06:50:36.913Z,100868.13
2023-01-08T06:53:03.555Z,100862.99
2023-01-08T06:55:30.249Z,100861.95
2023-01-08T06:57:57.668Z,100860.77
2023-01-08T07:00:26.180Z,100863.70
2023-01-08T07:02:53.622Z,100860.83
2023-01-08T07:05:20.480Z,100858.11
2023-01-08T07:07:47.075Z,100860.33
2023-01-08T07:10:13.859Z,100860.44
2023-01-08T07:12:40.621Z,100859.20
2023-01-08T07:15:08.210Z,100862.53
2023-01-08T07:17:34.998Z,100861.09
2023-01-08T07:20:01.603Z,100861.84
2023-01-08T07:22:28.372Z,100862.61
2023-01-08T07:24:55.004Z,100853.59
2023-01-08T07:27:21.728Z,100860.71
2023-01-08T07:29:48.324Z,100859.34
2023-01-08T07:32:15.098Z,100857.98
2023-01-08T07:34:41.999Z,100861.94
2023-01-08T07:37:08.766Z,100864.05
2023-01-08T07:39:35.440Z,100866.27
2023-01-08T07:42:02.125Z,100864.05
2023-01-08T07:44:29.180Z,100866.73
2023-01-08T07:46:55.928Z,100861.84
2023-01-08T07:49:22.651Z,100862.71
2023-01-08T07:51:49.735Z,100861.77
2023-01-08T07:54:16.488Z,100862.70
2023-01-08T07:56:43.207Z,100864.04
2023-01-08T07:59:09.875Z,100860.86
2023-01-08T08:01:36.712Z,100863.98
2023-01-08T08:04:03.656Z,100863.37
2023-01-08T08:06:30.361Z,100867.97
2023-01-08T08:08:57.891Z,100863.55
2023-01-08T08:11:24.631Z,100872.94
2023-01-08T08:13:53.092Z,100875.21
2023-01-08T08:16:20.691Z,100878.23
2023-01-08T08:18:47.471Z,100877.98
2023-01-08T08:21:14.100Z,100871.79
2023-01-08T08:23:40.803Z,100876.84
2023-01-08T08:26:07.856Z,100880.35
2023-01-08T08:28:34.576Z,100879.65
2023-01-08T08:31:01.314Z,100877.40
2023-01-08T08:33:28.052Z,100879.50
2023-01-08T08:35:54.734Z,100880.49
2023-01-08T08:38:23.880Z,100880.79
2023-01-08T08:40:50.896Z,100879.20
2023-01-08T08:43:17.572Z,100880.32
2023-01-08T08:45:44.331Z,100874.55
2023-01-08T08:48:11.392Z,100875.70
2023-01-08T08:50:38.462Z,100869.80
2023-01-08T08:53:05.762Z,100863.39
2023-01-08T08:55:32.860Z,100858.38
2023-01-08T08:58:05.054Z,100855.85
2023-01-08T09:00:31.854Z,100862.32
2023-01-08T09:02:58.602Z,100861.25
2023-01-08T09:05:25.511Z,100858.28
2023-01-08T09:07:52.180Z,100855.39
2023-01-08T09:10:18.918Z,100853.66
2023-01-08T09:12:45.543Z,100850.87
2023-01-08T09:15:12.269Z,100851.84
2023-01-08T09:17:38.944Z,100850.46
2023-01-08T09:20:06.433Z,100846.55
2023-01-08T09:22:33.282Z,100846.63
2023-01-08T09:24:59.873Z,100850.88
2023-01-08T09:27:26.615Z,100848.82
2023-01-08T09:29:53.258Z,100844.39
2023-01-08T09:32:19.972Z,100842.80
2023-01-08T09:34:46.667Z,100840.96
2023-01-08T09:37:13.408Z,100836.85
2023-01-08T09:39:41.103Z,100835.10
2023-01-08T09:42:10.933Z,100835.55
2023-01-08T09:44:38.771Z,100828.98
2023-01-08T09:47:06.592Z,100828.09
2023-01-08T09:49:40.992Z,100820.83
2023-01-08T09:52:11.440Z,100821.94
2023-01-08T09:54:38.206Z,100816.83
2023-01-08T09:57:04.961Z,100825.80
2023-01-08T09:59:31.690Z,100819.20
2023-01-08T10:01:58.503Z,100816.02
2023-01-08T10:04:26.827Z,100815.86
2023-01-08T10:06:58.841Z,100811.30
2023-01-08T10:09:30.475Z,100806.41
2023-01-08T10:12:01.498Z,100808.54
2023-01-08T10:14:30.494Z,100811.08
2023-01-08T10:17:02.334Z,100814.83
2023-01-08T10:19:29.126Z,100817.01
2023-01-08T10:21:56.116Z,100818.12
2023-01-08T10:24:36.332Z,100813.53
2023-01-08T10:27:21.267Z,100816.40
2023-01-08T10:29:50.282Z,100814.52
2023-01-08T10:32:18.277Z,100809.83
2023-01-08T10:34:56.077Z,100805.85
2023-01-08T10:37:23.010Z,100806.94
2023-01-08T10:39:49.732Z,100805.25
2023-01-08T10:42:17.823Z,100800.67
2023-01-08T10:45:07.889Z,100797.02
2023-01-08T10:47:35.261Z,100793.19
2023-01-08T10:50:03.230Z,100795.02
2023-01-08T10:52:34.488Z,100789.88
2023-01-08T10:55:21.964Z,100792.77
2023-01-08T10:57:58.998Z,100794.42
2023-01-08T11:00:30.815Z,100795.08
2023-01-08T11:02:59.376Z,100795.83
2023-01-08T11:05:34.183Z,100793.68
2023-01-08T11:08:01.550Z,100789.12
2023-01-08T11:10:28.371Z,100788.90
2023-01-08T11:12:59.105Z,100774.87
2023-01-08T11:15:36.781Z,100774.31
2023-01-08T11:18:14.770Z,100773.66
2023-01-08T11:20:42.141Z,100777.05
2023-01-08T11:23:19.149Z,100777.84
2023-01-08T11:26:14.039Z,100775.44
2023-01-08T11:28:54.973Z,100775.41
2023-01-08T11:31:25.521Z,100778.91
2023-01-08T11:33:54.891Z,100782.29
2023-01-08T11:36:28.205Z,100784.86
2023-01-08T11:38:54.934Z,100792.35
2023-01-08T11:41:46.143Z,100787.52
2023-01-08T11:44:22.978Z,100780.16
2023-01-08T11:46:52.736Z,100779.58
2023-01-08T11:49:30.238Z,100778.13
2023-01-08T11:51:56.956Z,100775.75
2023-01-08T11:54:43.675Z,100775.69
2023-01-08T11:57:20.843Z,100771.27
2023-01-08T12:00:18.430Z,100775.42
2023-01-08T12:02:52.903Z,100775.75
2023-01-08T12:05:22.927Z,100776.05
2023-01-08T12:07:58.808Z,100775.05
2023-01-08T12:10:57.099Z,100772.88
2023-01-08T12:13:36.760Z,100765.19
2023-01-08T12:16:25.021Z,100763.86
2023-01-08T12:19:13.953Z,100760.84
2023-01-08T12:21:46.847Z,100759.63
2023-01-08T12:24:35.122Z,100751.23
2023-01-08T12:27:57.280Z,100750.86
2023-01-08T12:30:42.687Z,100751.55
2023-01-08T12:33:19.106Z,100749.61
2023-01-08T12:35:50.396Z,100743.36
2023-01-08T12:38:43.304Z,100746.95
2023-01-08T12:41:11.742Z,100741.95
2023-01-08T12:43:59.481Z,100743.79
2023-01-08T12:46:28.462Z,100739.99
2023-01-08T12:48:55.785Z,100738.46
2023-01-08T12:51:39.456Z,100737.36
2023-01-08T12:54:28.760Z,100734.58
2023-01-08T12:57:19.531Z,100733.36
2023-01-08T13:00:01.329Z,100736.45
2023-01-08T13:02:52.069Z,100726.33
2023-01-08T13:05:18.851Z,100728.98
2023-01-08T13:07:59.014Z,100726.14
2023-01-08T13:10:28.646Z,100732.06
2023-01-08T13:12:55.663Z,100729.71
2023-01-08T13:15:23.767Z,100728.21
2023-01-08T13:17:50.527Z,100732.98
2023-01-08T13:20:22.899Z,100731.79
2023-01-08T13:23:03.226Z,100732.14
2023-01-08T13:25:35.058Z,100737.58
2023-01-08T13:28:18.178Z,100733.09
2023-01-08T13:30:48.804Z,100730.80
2023-01-08T13:33:33.899Z,100741.68
2023-01-08T13:36:12.872Z,100738.30
2023-01-08T13:38:44.714Z,100734.95
2023-01-08T13:41:28.624Z,100731.35
2023-01-08T13:44:00.913Z,100728.00
2023-01-08T13:46:27.654Z,100725.73
2023-01-08T13:49:06.378Z,100724.88
2023-01-08T13:51:38.658Z,100725.67
2023-01-08T13:54:31.421Z,100716.77
2023-01-08T13:57:04.174Z,100714.15
2023-01-08T13:59:30.857Z,100707.58
2023-01-08T14:01:57.908Z,100706.44
2023-01-08T14:04:24.785Z,100705.33
2023-01-08T14:06:51.625Z,100696.52
2023-01-08T14:09:22.368Z,100695.70
2023-01-08T14:11:50.585Z,100685.88
2023-01-08T14:14:18.618Z,100690.38
2023-01-08T14:16:45.481Z,100683.50
2023-01-08T14:19:15.493Z,100688.71
2023-01-08T14:21:56.195Z,100685.20
2023-01-08T14:24:24.031Z,100688.97
2023-01-08T14:26:55.507Z,100679.86
2023-01-08T14:29:26.211Z,100678.66
2023-01-08T14:31:55.022Z,100680.61
2023-01-08T14:34:23.018Z,100683.25
2023-01-08T14:36:51.613Z,100684.77
2023-01-08T14:39:25.369Z,100683.77
2023-01-08T14:42:24.552Z,100684.08
2023-01-08T14:45:00.173Z,100690.40
2023-01-08T14:47:31.959Z,100679.88
2023-01-08T14:49:58.740Z,100680.89
2023-01-08T14:52:25.598Z,100682.42
2023-01-08T14:54:53.395Z,100683.30
2023-01-08T14:57:20.141Z,100683.27
2023-01-08T14:59:57.454Z,100684.80
2023-01-08T15:02:31.874Z,100680.27
2023-01-08T15:05:22.885Z,100680.96
2023-01-08T15:08:01.440Z,100683.33
2023-01-08T15:10:37.353Z,100683.56
2023-01-08T15:13:07.486Z,100679.02
2023-01-08T15:15:41.833Z,100680.16
2023-01-08T15:18:09.133Z,100681.50
2023-01-08T15:20:35.867Z,100681.39
2023-01-08T15:23:02.661Z,100681.48
2023-01-08T15:25:29.588Z,100678.86
2023-01-08T15:28:00.584Z,100679.44
2023-01-08T15:30:39.501Z,100677.00
2023-01-08T15:33:17.226Z,100676.85
2023-01-08T15:35:44.062Z,100673.55
2023-01-08T15:38:10.882Z,100682.89
2023-01-08T15:40:37.595Z,100684.73
2023-01-08T15:43:10.258Z,100677.99
2023-01-08T15:45:41.320Z,100686.23
2023-01-08T15:48:08.836Z,100683.67
2023-01-08T15:50:39.963Z,100681.55
2023-01-08T15:53:10.664Z,100681.13
2023-01-08T15:55:37.686Z,100675.52
2023-01-08T15:58:04.463Z,100678.88
2023-01-08T16:02:23.317Z,100670.22
2023-01-08T16:04:53.377Z,100671.23
2023-01-08T16:07:19.997Z,100671.23
2023-01-08T16:09:46.687Z,100670.58
2023-01-08T16:12:13.185Z,100666.70
2023-01-08T16:14:43.640Z,100661.42
2023-01-08T16:17:10.383Z,100666.44
2023-01-08T16:19:37.098Z,100675.94
2023-01-08T16:22:03.956Z,100678.10
2023-01-08T16:24:30.877Z,100675.25
2023-01-08T16:26:57.517Z,100674.88
2023-01-08T16:29:27.017Z,100673.55
2023-01-08T16:31:54.736Z,100680.47
2023-01-08T16:34:21.357Z,100685.31
2023-01-08T16:36:48.754Z,100687.81
2023-01-08T16:39:15.374Z,100692.67
2023-01-08T16:41:42.176Z,100691.73
2023-01-08T16:44:20.067Z,100686.31
2023-01-08T16:46:47.155Z,100681.12
2023-01-08T16:49:13.849Z,100680.20
2023-01-08T16:51:40.338Z,100682.52
2023-01-08T16:54:07.231Z,100684.94
2023-01-08T16:56:34.139Z,100684.52
2023-01-08T16:59:00.632Z,100685.92
2023-01-08T17:01:27.392Z,100684.60
2023-01-08T17:03:54.715Z,100682.70
2023-01-08T17:06:21.231Z,100683.28
2023-01-08T17:08:50.622Z,100682.68
2023-01-08T17:11:18.285Z,100682.74
2023-01-08T17:13:45.117Z,100684.50
2023-01-08T17:16:13.824Z,100681.63
2023-01-08T17:18:40.467Z,100682.98
2023-01-08T17:21:07.364Z,100682.98
2023-01-08T17:23:34.883Z,100686.48
2023-01-08T17:26:04.227Z,100683.65
2023-01-08T17:28:31.048Z,100681.17
2023-01-08T17:31:10.460Z,100681.66
2023-01-08T17:33:37.297Z,100684.14
2023-01-08T17:36:10.761Z,100683.02
2023-01-08T17:38:38.316Z,100684.80
2023-01-08T17:41:05.357Z,100682.67
2023-01-08T17:43:38.521Z,100686.70
2023-01-08T17:46:05.771Z,100681.11
2023-01-08T17:48:33.338Z,100683.10
2023-01-08T17:50:59.935Z,100680.95
2023-01-08T17:53:27.357Z,100675.92
2023-01-08T17:55:53.960Z,100686.58
2023-01-08T17:58:20.482Z,100689.49
2023-01-08T18:00:47.092Z,100692.50
2023-01-08T18:03:13.602Z,100689.98
2023-01-08T18:05:40.234Z,100687.23
2023-01-08T18:08:07.026Z,100684.98
2023-01-08T18:10:38.189Z,100685.30
2023-01-08T18:13:04.966Z,100680.17
2023-01-08T18:15:33.475Z,100681.30
2023-01-08T18:18:00.741Z,100676.39
2023-01-08T18:20:28.230Z,100672.51
2023-01-08T18:22:55.296Z,100671.32
2023-01-08T18:25:22.372Z,100669.89
2023-01-08T18:27:48.930Z,100673.02
2023-01-08T18:30:15.634Z,100671.48
2023-01-08T18:32:44.159Z,100669.10
2023-01-08T18:35:15.123Z,100670.27
2023-01-08T18:37:41.725Z,100671.97
2023-01-08T18:40:10.617Z,100669.84
2023-01-08T18:42:37.812Z,100669.85
2023-01-08T18:45:05.420Z,100669.15
2023-01-08T18:47:32.207Z,100665.35
2023-01-08T18:50:02.323Z,100661.20
2023-01-08T18:52:29.358Z,100652.74
2023-01-08T18:54:56.936Z,100659.57
2023-01-08T18:57:23.601Z,100657.19
2023-01-08T18:59:50.191Z,100657.02
2023-01-08T19:02:21.469Z,100655.28
2023-01-08T19:04:48.220Z,100652.74
2023-01-08T19:07:15.800Z,100646.40
2023-01-08T19:09:42.714Z,100653.41
2023-01-08T19:12:09.374Z,100653.20
2023-01-08T19:14:35.942Z,100654.06
2023-01-08T19:17:02.568Z,100651.10
2023-01-08T19:19:29.639Z,100646.34
2023-01-08T19:21:56.839Z,100637.40
2023-01-08T19:24:23.509Z,100637.68
2023-01-08T19:26:50.213Z,100642.42
2023-01-08T19:29:17.194Z,100640.94
2023-01-08T19:31:45.329Z,100647.48
2023-01-08T19:34:12.244Z,100637.45
2023-01-08T19:36:39.068Z,100637.05
2023-01-08T19:39:10.638Z,100636.78
2023-01-08T19:41:59.124Z,100635.34
2023-01-08T19:44:25.912Z,100636.23
2023-01-08T19:46:52.455Z,100634.05
2023-01-08T19:49:19.429Z,100638.11
2023-01-08T19:51:45.999Z,100637.77
2023-01-08T19:54:13.602Z,100638.91
2023-01-08T19:56:40.434Z,100641.61
2023-01-08T19:59:07.018Z,100642.70
2023-01-08T20:01:36.384Z,100645.13
2023-01-08T20:04:03.747Z,100645.92
2023-01-08T20:06:30.389Z,100643.98
2023-01-08T20:08:58.043Z,100639.77
2023-01-08T20:11:25.193Z,100639.02
2023-01-08T20:13:52.153Z,100637.30
2023-01-08T20:16:19.825Z,100638.48
2023-01-08T20:18:46.733Z,100631.66
2023-01-08T20:21:23.545Z,100631.90
2023-01-08T20:23:57.301Z,100633.17
2023-01-08T20:26:25.972Z,100628.94
2023-01-08T20:28:53.528Z,100626.02
2023-01-08T20:31:21.566Z,100616.47
2023-01-08T20:33:48.516Z,100625.36
2023-01-08T20:36:20.253Z,100626.02
2023-01-08T20:38:50.549Z,100622.70
2023-01-08T20:41:17.386Z,100625.33
2023-01-08T20:43:44.817Z,100620.80
2023-01-08T20:46:13.418Z,100623.09
2023-01-08T20:48:47.691Z,100621.48
2023-01-08T20:51:15.095Z,100615.79
2023-01-08T20:53:42.285Z,100620.73
2023-01-08T20:56:11.642Z,100615.98
2023-01-08T20:58:42.426Z,100619.59
2023-01-08T21:01:10.765Z,100612.92
2023-01-08T21:03:38.125Z,100610.20
2023-01-08T21:06:06.742Z,100608.42
2023-01-08T21:08:33.638Z,100602.27
2023-01-08T21:11:00.755Z,100600.03
2023-01-08T21:13:27.352Z,100595.34
2023-01-08T21:16:03.990Z,100589.63
2023-01-08T21:18:30.778Z,100590.31
2023-01-08T21:20:59.922Z,100594.50
2023-01-08T21:23:27.614Z,100596.89
2023-01-08T21:26:02.225Z,100603.02
2023-01-08T21:28:28.926Z,100602.34
2023-01-08T21:30:55.495Z,100599.83
2023-01-08T21:33:24.234Z,100593.27
2023-01-08T21:35:50.853Z,100593.52
2023-01-08T21:38:17.316Z,100588.29
2023-01-08T21:40:46.419Z,100581.19
2023-01-08T21:43:31.672Z,100571.58
2023-01-08T21:46:01.005Z,100568.73
2023-01-08T21:48:28.625Z,100575.53
2023-01-08T21:50:55.523Z,100577.77
2023-01-08T21:53:31.067Z,100580.08
2023-01-08T21:56:01.508Z,100579.19
2023-01-08T21:58:28.491Z,100570.92
2023-01-08T22:00:55.746Z,100561.15
2023-01-08T22:03:22.233Z,100555.33
2023-01-08T22:06:00.051Z,100546.02
2023-01-08T22:08:27.508Z,100546.81
2023-01-08T22:10:54.717Z,100531.63
2023-01-08T22:13:21.225Z,100528.59
2023-01-08T22:15:47.787Z,100540.71
2023-01-08T22:18:26.886Z,100539.95
2023-01-08T22:21:12.286Z,100528.48
2023-01-08T22:23:38.846Z,100524.23
2023-01-08T22:26:09.257Z,100523.89
2023-01-08T22:28:39.241Z,100524.40
2023-01-08T22:31:06.566Z,100525.94
2023-01-08T22:33:33.112Z,100514.14
2023-01-08T22:36:05.027Z,100515.32
2023-01-08T22:38:31.907Z,100504.02
2023-01-08T22:40:58.494Z,100509.13
2023-01-08T22:43:25.262Z,100511.10
2023-01-08T22:45:53.082Z,100502.85
2023-01-08T22:48:19.927Z,100512.98
2023-01-08T22:50:46.461Z,100513.42
2023-01-08T22:53:12.956Z,100515.68
2023-01-08T22:55:40.673Z,100510.73
2023-01-08T22:58:07.897Z,100507.11
2023-01-08T23:00:37.411Z,100507.33
2023-01-08T23:03:04.487Z,100512.18
2023-01-08T23:05:31.848Z,100514.30
2023-01-08T23:07:58.381Z,100508.43
2023-01-08T23:10:25.479Z,100502.64
2023-01-08T23:12:52.770Z,100502.33
2023-01-08T23:15:20.487Z,100497.90
2023-01-08T23:17:52.259Z,100496.86
2023-01-08T23:20:20.037Z,100493.48
2023-01-08T23:22:46.998Z,100492.23
2023-01-08T23:25:13.488Z,100489.02
2023-01-08T23:27:41.314Z,100484.75
2023-01-08T23:30:08.623Z,100482.48
2023-01-08T23:32:35.381Z,100473.82
2023-01-08T23:35:01.909Z,100467.74
2023-01-08T23:37:29.530Z,100463.00
2023-01-08T23:39:56.029Z,100458.98
2023-01-08T23:42:22.711Z,100460.30
2023-01-08T23:44:49.666Z,100462.32
2023-01-08T23:47:16.255Z,100453.77
2023-01-08T23:49:43.066Z,100455.00
2023-01-08T23:52:09.527Z,100454.45
2023-01-08T23:54:36.305Z,100457.89
2023-01-08T23:57:05.449Z,100456.88
2023-01-08T23:59:32.223Z,100457.84
